sensor_id;sensor_type;location;lat;lon;timestamp;P1;durP1;ratioP1;P2;durP2;ratioP2
53875;SDS011;39789;53.216;5.624;2024-01-10T00:01:43;13.57;;;12.00;;
53875;SDS011;39789;53.216;5.624;2024-01-10T00:04:08;13.67;;;11.60;;
53875;SDS011;39789;53.216;5.624;2024-01-10T00:06:34;13.27;;;11.87;;
53875;SDS011;39789;53.216;5.624;2024-01-10T00:09:00;12.17;;;10.83;;
53875;SDS011;39789;53.216;5.624;2024-01-10T00:11:26;13.00;;;11.53;;
53875;SDS011;39789;53.216;5.624;2024-01-10T00:13:51;12.53;;;11.20;;
53875;SDS011;39789;53.216;5.624;2024-01-10T00:16:17;14.10;;;11.27;;
53875;SDS011;39789;53.216;5.624;2024-01-10T00:18:42;13.43;;;11.77;;
53875;SDS011;39789;53.216;5.624;2024-01-10T00:21:09;13.73;;;12.33;;
53875;SDS011;39789;53.216;5.624;2024-01-10T00:23:35;12.70;;;11.40;;
53875;SDS011;39789;53.216;5.624;2024-01-10T00:26:01;12.97;;;11.57;;
53875;SDS011;39789;53.216;5.624;2024-01-10T00:28:26;15.40;;;12.20;;
53875;SDS011;39789;53.216;5.624;2024-01-10T00:30:52;14.33;;;12.13;;
53875;SDS011;39789;53.216;5.624;2024-01-10T00:33:18;12.23;;;11.03;;
53875;SDS011;39789;53.216;5.624;2024-01-10T00:35:43;13.97;;;12.20;;
53875;SDS011;39789;53.216;5.624;2024-01-10T00:38:09;13.23;;;11.77;;
53875;SDS011;39789;53.216;5.624;2024-01-10T00:40:35;12.73;;;11.37;;
53875;SDS011;39789;53.216;5.624;2024-01-10T00:43:01;12.40;;;11.10;;
53875;SDS011;39789;53.216;5.624;2024-01-10T00:45:29;14.53;;;12.00;;
53875;SDS011;39789;53.216;5.624;2024-01-10T00:47:54;13.13;;;11.73;;
53875;SDS011;39789;53.216;5.624;2024-01-10T00:50:20;13.23;;;11.80;;
53875;SDS011;39789;53.216;5.624;2024-01-10T00:52:46;12.90;;;11.50;;
53875;SDS011;39789;53.216;5.624;2024-01-10T00:55:12;13.63;;;11.57;;
53875;SDS011;39789;53.216;5.624;2024-01-10T00:57:38;12.30;;;11.00;;
53875;SDS011;39789;53.216;5.624;2024-01-10T01:00:07;16.03;;;12.67;;
53875;SDS011;39789;53.216;5.624;2024-01-10T01:02:34;13.60;;;12.20;;
53875;SDS011;39789;53.216;5.624;2024-01-10T01:05:00;14.27;;;12.57;;
53875;SDS011;39789;53.216;5.624;2024-01-10T01:07:27;16.07;;;14.37;;
53875;SDS011;39789;53.216;5.624;2024-01-10T01:09:52;14.67;;;12.97;;
53875;SDS011;39789;53.216;5.624;2024-01-10T01:12:18;15.20;;;13.60;;
53875;SDS011;39789;53.216;5.624;2024-01-10T01:14:44;17.73;;;14.63;;
53875;SDS011;39789;53.216;5.624;2024-01-10T01:17:09;16.47;;;14.10;;
53875;SDS011;39789;53.216;5.624;2024-01-10T01:19:35;16.30;;;14.57;;
53875;SDS011;39789;53.216;5.624;2024-01-10T01:22:01;17.53;;;15.10;;
53875;SDS011;39789;53.216;5.624;2024-01-10T01:24:26;17.00;;;15.30;;
53875;SDS011;39789;53.216;5.624;2024-01-10T01:26:52;18.00;;;15.63;;
53875;SDS011;39789;53.216;5.624;2024-01-10T01:29:18;16.77;;;15.07;;
53875;SDS011;39789;53.216;5.624;2024-01-10T01:31:45;18.33;;;16.30;;
53875;SDS011;39789;53.216;5.624;2024-01-10T01:34:10;17.00;;;15.20;;
53875;SDS011;39789;53.216;5.624;2024-01-10T01:36:36;16.10;;;14.37;;
53875;SDS011;39789;53.216;5.624;2024-01-10T01:39:02;18.33;;;16.37;;
53875;SDS011;39789;53.216;5.624;2024-01-10T01:41:28;19.00;;;16.27;;
53875;SDS011;39789;53.216;5.624;2024-01-10T01:43:54;17.77;;;15.87;;
53875;SDS011;39789;53.216;5.624;2024-01-10T01:46:19;17.73;;;15.87;;
53875;SDS011;39789;53.216;5.624;2024-01-10T01:48:46;21.83;;;16.63;;
53875;SDS011;39789;53.216;5.624;2024-01-10T01:51:12;18.57;;;16.37;;
53875;SDS011;39789;53.216;5.624;2024-01-10T01:53:39;18.57;;;16.57;;
53875;SDS011;39789;53.216;5.624;2024-01-10T01:56:07;18.30;;;16.30;;
53875;SDS011;39789;53.216;5.624;2024-01-10T01:58:34;19.47;;;17.33;;
53875;SDS011;39789;53.216;5.624;2024-01-10T02:01:04;18.90;;;17.00;;
53875;SDS011;39789;53.216;5.624;2024-01-10T02:03:33;21.13;;;18.13;;
53875;SDS011;39789;53.216;5.624;2024-01-10T02:05:59;19.47;;;16.87;;
53875;SDS011;39789;53.216;5.624;2024-01-10T02:08:28;21.27;;;18.43;;
53875;SDS011;39789;53.216;5.624;2024-01-10T02:10:56;19.57;;;17.60;;
53875;SDS011;39789;53.216;5.624;2024-01-10T02:13:22;19.67;;;17.33;;
53875;SDS011;39789;53.216;5.624;2024-01-10T02:15:48;21.13;;;18.63;;
53875;SDS011;39789;53.216;5.624;2024-01-10T02:18:13;19.77;;;17.60;;
53875;SDS011;39789;53.216;5.624;2024-01-10T02:20:39;21.30;;;18.83;;
53875;SDS011;39789;53.216;5.624;2024-01-10T02:23:07;20.70;;;18.50;;
53875;SDS011;39789;53.216;5.624;2024-01-10T02:25:34;22.17;;;18.83;;
53875;SDS011;39789;53.216;5.624;2024-01-10T02:28:00;21.83;;;19.40;;
53875;SDS011;39789;53.216;5.624;2024-01-10T02:30:25;20.50;;;18.40;;
53875;SDS011;39789;53.216;5.624;2024-01-10T02:32:51;23.07;;;20.57;;
53875;SDS011;39789;53.216;5.624;2024-01-10T02:35:17;22.20;;;19.80;;
53875;SDS011;39789;53.216;5.624;2024-01-10T02:37:42;22.73;;;20.37;;
53875;SDS011;39789;53.216;5.624;2024-01-10T02:40:08;23.60;;;21.10;;
53875;SDS011;39789;53.216;5.624;2024-01-10T02:42:34;23.67;;;21.23;;
53875;SDS011;39789;53.216;5.624;2024-01-10T02:45:00;23.83;;;21.43;;
53875;SDS011;39789;53.216;5.624;2024-01-10T02:47:26;24.03;;;21.40;;
53875;SDS011;39789;53.216;5.624;2024-01-10T02:49:54;23.87;;;21.37;;
53875;SDS011;39789;53.216;5.624;2024-01-10T02:52:19;23.70;;;21.30;;
53875;SDS011;39789;53.216;5.624;2024-01-10T02:54:45;25.90;;;23.10;;
53875;SDS011;39789;53.216;5.624;2024-01-10T02:57:11;23.60;;;21.07;;
53875;SDS011;39789;53.216;5.624;2024-01-10T02:59:37;25.77;;;22.93;;
53875;SDS011;39789;53.216;5.624;2024-01-10T03:02:03;24.87;;;22.37;;
53875;SDS011;39789;53.216;5.624;2024-01-10T03:04:29;26.50;;;23.70;;
53875;SDS011;39789;53.216;5.624;2024-01-10T03:06:54;25.23;;;22.30;;
53875;SDS011;39789;53.216;5.624;2024-01-10T03:09:20;27.13;;;23.83;;
53875;SDS011;39789;53.216;5.624;2024-01-10T03:11:47;25.40;;;22.70;;
53875;SDS011;39789;53.216;5.624;2024-01-10T03:14:12;27.33;;;24.43;;
53875;SDS011;39789;53.216;5.624;2024-01-10T03:16:38;27.43;;;24.17;;
53875;SDS011;39789;53.216;5.624;2024-01-10T03:19:04;27.77;;;24.83;;
53875;SDS011;39789;53.216;5.624;2024-01-10T03:21:29;27.67;;;24.70;;
53875;SDS011;39789;53.216;5.624;2024-01-10T03:23:55;27.97;;;24.97;;
53875;SDS011;39789;53.216;5.624;2024-01-10T03:26:22;27.70;;;24.50;;
53875;SDS011;39789;53.216;5.624;2024-01-10T03:28:48;26.93;;;24.03;;
53875;SDS011;39789;53.216;5.624;2024-01-10T03:31:14;26.87;;;24.07;;
53875;SDS011;39789;53.216;5.624;2024-01-10T03:33:40;26.77;;;23.93;;
53875;SDS011;39789;53.216;5.624;2024-01-10T03:36:06;25.23;;;22.50;;
53875;SDS011;39789;53.216;5.624;2024-01-10T03:38:35;26.80;;;23.93;;
53875;SDS011;39789;53.216;5.624;2024-01-10T03:41:00;28.07;;;23.93;;
53875;SDS011;39789;53.216;5.624;2024-01-10T03:43:26;25.73;;;23.03;;
53875;SDS011;39789;53.216;5.624;2024-01-10T03:45:51;24.60;;;22.00;;
53875;SDS011;39789;53.216;5.624;2024-01-10T03:48:17;25.70;;;22.73;;
53875;SDS011;39789;53.216;5.624;2024-01-10T03:50:43;24.93;;;22.27;;
53875;SDS011;39789;53.216;5.624;2024-01-10T03:53:08;24.07;;;20.47;;
53875;SDS011;39789;53.216;5.624;2024-01-10T03:55:34;26.07;;;23.27;;
53875;SDS011;39789;53.216;5.624;2024-01-10T03:57:59;24.63;;;21.53;;
53875;SDS011;39789;53.216;5.624;2024-01-10T04:00:25;24.73;;;22.13;;
53875;SDS011;39789;53.216;5.624;2024-01-10T04:02:51;24.73;;;21.80;;
53875;SDS011;39789;53.216;5.624;2024-01-10T04:05:17;24.23;;;21.77;;
53875;SDS011;39789;53.216;5.624;2024-01-10T04:07:44;23.03;;;20.63;;
53875;SDS011;39789;53.216;5.624;2024-01-10T04:10:10;23.00;;;20.50;;
53875;SDS011;39789;53.216;5.624;2024-01-10T04:12:39;21.73;;;19.43;;
53875;SDS011;39789;53.216;5.624;2024-01-10T04:15:05;22.70;;;19.77;;
53875;SDS011;39789;53.216;5.624;2024-01-10T04:17:32;21.50;;;19.20;;
53875;SDS011;39789;53.216;5.624;2024-01-10T04:19:58;20.90;;;18.67;;
53875;SDS011;39789;53.216;5.624;2024-01-10T04:22:24;22.13;;;19.90;;
53875;SDS011;39789;53.216;5.624;2024-01-10T04:24:50;20.70;;;13.50;;
53875;SDS011;39789;53.216;5.624;2024-01-10T04:27:16;20.73;;;18.50;;
53875;SDS011;39789;53.216;5.624;2024-01-10T04:29:43;24.00;;;19.93;;
53875;SDS011;39789;53.216;5.624;2024-01-10T04:32:09;22.80;;;20.20;;
53875;SDS011;39789;53.216;5.624;2024-01-10T04:34:35;21.10;;;18.90;;
53875;SDS011;39789;53.216;5.624;2024-01-10T04:37:00;21.70;;;19.13;;
53875;SDS011;39789;53.216;5.624;2024-01-10T04:39:26;20.90;;;18.60;;
53875;SDS011;39789;53.216;5.624;2024-01-10T04:41:52;21.00;;;17.97;;
53875;SDS011;39789;53.216;5.624;2024-01-10T04:44:18;21.57;;;19.20;;
53875;SDS011;39789;53.216;5.624;2024-01-10T04:46:43;20.53;;;18.13;;
53875;SDS011;39789;53.216;5.624;2024-01-10T04:49:09;20.73;;;18.50;;
53875;SDS011;39789;53.216;5.624;2024-01-10T04:51:35;21.07;;;18.53;;
53875;SDS011;39789;53.216;5.624;2024-01-10T04:54:01;21.07;;;18.87;;
53875;SDS011;39789;53.216;5.624;2024-01-10T04:56:26;21.17;;;18.90;;
53875;SDS011;39789;53.216;5.624;2024-01-10T04:58:52;20.03;;;17.93;;
53875;SDS011;39789;53.216;5.624;2024-01-10T05:01:18;21.17;;;17.47;;
53875;SDS011;39789;53.216;5.624;2024-01-10T05:03:43;22.40;;;18.30;;
53875;SDS011;39789;53.216;5.624;2024-01-10T05:06:09;19.50;;;17.53;;
53875;SDS011;39789;53.216;5.624;2024-01-10T05:08:35;20.40;;;17.67;;
53875;SDS011;39789;53.216;5.624;2024-01-10T05:11:01;19.37;;;17.20;;
53875;SDS011;39789;53.216;5.624;2024-01-10T05:13:27;20.80;;;17.57;;
53875;SDS011;39789;53.216;5.624;2024-01-10T05:15:53;18.00;;;15.70;;
53875;SDS011;39789;53.216;5.624;2024-01-10T05:18:20;19.63;;;17.53;;
53875;SDS011;39789;53.216;5.624;2024-01-10T05:20:46;22.03;;;18.80;;
53875;SDS011;39789;53.216;5.624;2024-01-10T05:23:12;20.63;;;18.43;;
53875;SDS011;39789;53.216;5.624;2024-01-10T05:25:38;17.90;;;13.37;;
53875;SDS011;39789;53.216;5.624;2024-01-10T05:28:04;21.17;;;18.90;;
53875;SDS011;39789;53.216;5.624;2024-01-10T05:30:30;22.60;;;19.67;;
53875;SDS011;39789;53.216;5.624;2024-01-10T05:32:56;22.37;;;19.97;;
53875;SDS011;39789;53.216;5.624;2024-01-10T05:35:23;21.50;;;19.20;;
53875;SDS011;39789;53.216;5.624;2024-01-10T05:37:53;23.07;;;20.57;;
53875;SDS011;39789;53.216;5.624;2024-01-10T05:40:20;20.87;;;18.67;;
53875;SDS011;39789;53.216;5.624;2024-01-10T05:42:46;21.67;;;19.03;;
53875;SDS011;39789;53.216;5.624;2024-01-10T05:45:12;21.97;;;19.47;;
53875;SDS011;39789;53.216;5.624;2024-01-10T05:47:37;21.50;;;19.17;;
53875;SDS011;39789;53.216;5.624;2024-01-10T05:50:03;26.33;;;21.17;;
53875;SDS011;39789;53.216;5.624;2024-01-10T05:52:32;23.33;;;21.03;;
53875;SDS011;39789;53.216;5.624;2024-01-10T05:54:58;22.53;;;18.10;;
53875;SDS011;39789;53.216;5.624;2024-01-10T05:57:26;22.30;;;19.97;;
53875;SDS011;39789;53.216;5.624;2024-01-10T05:59:52;23.53;;;20.97;;
53875;SDS011;39789;53.216;5.624;2024-01-10T06:02:22;24.50;;;21.93;;
53875;SDS011;39789;53.216;5.624;2024-01-10T06:04:49;23.03;;;20.40;;
53875;SDS011;39789;53.216;5.624;2024-01-10T06:07:15;23.47;;;20.97;;
53875;SDS011;39789;53.216;5.624;2024-01-10T06:09:41;25.20;;;21.77;;
53875;SDS011;39789;53.216;5.624;2024-01-10T06:12:08;24.23;;;21.67;;
53875;SDS011;39789;53.216;5.624;2024-01-10T06:14:34;23.57;;;21.20;;
53875;SDS011;39789;53.216;5.624;2024-01-10T06:17:00;25.10;;;21.63;;
53875;SDS011;39789;53.216;5.624;2024-01-10T06:19:26;24.57;;;21.97;;
53875;SDS011;39789;53.216;5.624;2024-01-10T06:21:52;26.43;;;23.47;;
53875;SDS011;39789;53.216;5.624;2024-01-10T06:24:18;24.63;;;22.03;;
53875;SDS011;39789;53.216;5.624;2024-01-10T06:26:44;24.03;;;21.53;;
53875;SDS011;39789;53.216;5.624;2024-01-10T06:29:09;25.83;;;22.97;;
53875;SDS011;39789;53.216;5.624;2024-01-10T06:31:35;25.97;;;23.17;;
53875;SDS011;39789;53.216;5.624;2024-01-10T06:34:01;25.00;;;22.30;;
53875;SDS011;39789;53.216;5.624;2024-01-10T06:36:26;27.40;;;23.57;;
53875;SDS011;39789;53.216;5.624;2024-01-10T06:38:52;27.17;;;23.10;;
53875;SDS011;39789;53.216;5.624;2024-01-10T06:41:18;26.20;;;23.40;;
53875;SDS011;39789;53.216;5.624;2024-01-10T06:43:48;26.13;;;23.27;;
53875;SDS011;39789;53.216;5.624;2024-01-10T06:46:13;27.27;;;23.80;;
53875;SDS011;39789;53.216;5.624;2024-01-10T06:48:39;25.97;;;23.27;;
53875;SDS011;39789;53.216;5.624;2024-01-10T06:51:09;26.57;;;23.77;;
53875;SDS011;39789;53.216;5.624;2024-01-10T06:53:36;26.50;;;23.67;;
53875;SDS011;39789;53.216;5.624;2024-01-10T06:56:01;27.70;;;24.67;;
53875;SDS011;39789;53.216;5.624;2024-01-10T06:58:27;26.43;;;23.47;;
53875;SDS011;39789;53.216;5.624;2024-01-10T07:00:52;28.83;;;24.47;;
53875;SDS011;39789;53.216;5.624;2024-01-10T07:03:18;27.83;;;24.43;;
53875;SDS011;39789;53.216;5.624;2024-01-10T07:05:44;27.70;;;23.80;;
53875;SDS011;39789;53.216;5.624;2024-01-10T07:08:10;27.93;;;24.70;;
53875;SDS011;39789;53.216;5.624;2024-01-10T07:10:35;26.80;;;24.03;;
53875;SDS011;39789;53.216;5.624;2024-01-10T07:13:03;25.27;;;22.60;;
53875;SDS011;39789;53.216;5.624;2024-01-10T07:15:29;26.33;;;23.53;;
53875;SDS011;39789;53.216;5.624;2024-01-10T07:17:55;26.53;;;23.73;;
53875;SDS011;39789;53.216;5.624;2024-01-10T07:20:21;25.37;;;22.77;;
53875;SDS011;39789;53.216;5.624;2024-01-10T07:22:49;25.90;;;23.07;;
53875;SDS011;39789;53.216;5.624;2024-01-10T07:25:16;24.87;;;22.20;;
53875;SDS011;39789;53.216;5.624;2024-01-10T07:27:43;25.23;;;21.83;;
53875;SDS011;39789;53.216;5.624;2024-01-10T07:30:09;24.70;;;22.13;;
53875;SDS011;39789;53.216;5.624;2024-01-10T07:32:44;24.87;;;22.30;;
53875;SDS011;39789;53.216;5.624;2024-01-10T07:35:11;24.03;;;21.63;;
53875;SDS011;39789;53.216;5.624;2024-01-10T07:37:38;22.60;;;20.20;;
53875;SDS011;39789;53.216;5.624;2024-01-10T07:40:05;22.87;;;20.13;;
53875;SDS011;39789;53.216;5.624;2024-01-10T07:42:32;21.90;;;19.50;;
53875;SDS011;39789;53.216;5.624;2024-01-10T07:44:58;23.03;;;20.53;;
53875;SDS011;39789;53.216;5.624;2024-01-10T07:47:24;22.27;;;19.93;;
53875;SDS011;39789;53.216;5.624;2024-01-10T07:49:50;21.77;;;19.57;;
53875;SDS011;39789;53.216;5.624;2024-01-10T07:52:16;21.33;;;18.80;;
53875;SDS011;39789;53.216;5.624;2024-01-10T07:54:42;20.63;;;17.80;;
53875;SDS011;39789;53.216;5.624;2024-01-10T07:57:07;20.87;;;18.53;;
53875;SDS011;39789;53.216;5.624;2024-01-10T07:59:33;22.23;;;19.83;;
53875;SDS011;39789;53.216;5.624;2024-01-10T08:02:00;20.73;;;17.43;;
53875;SDS011;39789;53.216;5.624;2024-01-10T08:04:29;19.47;;;17.47;;
53875;SDS011;39789;53.216;5.624;2024-01-10T08:06:54;18.93;;;16.70;;
53875;SDS011;39789;53.216;5.624;2024-01-10T08:09:24;19.87;;;16.93;;
53875;SDS011;39789;53.216;5.624;2024-01-10T08:11:49;21.40;;;17.57;;
53875;SDS011;39789;53.216;5.624;2024-01-10T08:14:15;19.50;;;17.33;;
53875;SDS011;39789;53.216;5.624;2024-01-10T08:16:41;18.23;;;16.07;;
53875;SDS011;39789;53.216;5.624;2024-01-10T08:19:07;18.13;;;16.23;;
53875;SDS011;39789;53.216;5.624;2024-01-10T08:21:33;16.77;;;14.93;;
53875;SDS011;39789;53.216;5.624;2024-01-10T08:24:01;17.80;;;15.90;;
53875;SDS011;39789;53.216;5.624;2024-01-10T08:26:27;17.40;;;15.00;;
53875;SDS011;39789;53.216;5.624;2024-01-10T08:28:53;15.93;;;14.27;;
53875;SDS011;39789;53.216;5.624;2024-01-10T08:31:20;16.20;;;14.40;;
53875;SDS011;39789;53.216;5.624;2024-01-10T08:33:45;15.33;;;13.57;;
53875;SDS011;39789;53.216;5.624;2024-01-10T08:36:12;17.40;;;12.60;;
53875;SDS011;39789;53.216;5.624;2024-01-10T08:38:39;16.80;;;14.27;;
53875;SDS011;39789;53.216;5.624;2024-01-10T08:41:07;14.27;;;12.77;;
53875;SDS011;39789;53.216;5.624;2024-01-10T08:43:33;14.77;;;12.73;;
53875;SDS011;39789;53.216;5.624;2024-01-10T08:45:59;14.03;;;12.53;;
53875;SDS011;39789;53.216;5.624;2024-01-10T08:48:25;15.37;;;13.27;;
53875;SDS011;39789;53.216;5.624;2024-01-10T08:50:51;15.47;;;13.83;;
53875;SDS011;39789;53.216;5.624;2024-01-10T08:53:19;18.37;;;14.87;;
53875;SDS011;39789;53.216;5.624;2024-01-10T08:55:44;16.07;;;14.00;;
53875;SDS011;39789;53.216;5.624;2024-01-10T08:58:12;15.30;;;13.53;;
53875;SDS011;39789;53.216;5.624;2024-01-10T09:00:37;17.43;;;15.07;;
53875;SDS011;39789;53.216;5.624;2024-01-10T09:03:03;22.53;;;15.00;;
53875;SDS011;39789;53.216;5.624;2024-01-10T09:05:30;18.53;;;14.43;;
53875;SDS011;39789;53.216;5.624;2024-01-10T09:07:56;16.70;;;14.07;;
53875;SDS011;39789;53.216;5.624;2024-01-10T09:10:22;15.73;;;14.13;;
53875;SDS011;39789;53.216;5.624;2024-01-10T09:12:48;14.80;;;12.90;;
53875;SDS011;39789;53.216;5.624;2024-01-10T09:15:14;14.90;;;13.10;;
53875;SDS011;39789;53.216;5.624;2024-01-10T09:17:43;14.90;;;13.07;;
53875;SDS011;39789;53.216;5.624;2024-01-10T09:20:09;14.03;;;12.43;;
53875;SDS011;39789;53.216;5.624;2024-01-10T09:22:37;15.13;;;13.07;;
53875;SDS011;39789;53.216;5.624;2024-01-10T09:25:03;14.07;;;12.27;;
53875;SDS011;39789;53.216;5.624;2024-01-10T09:27:34;15.50;;;12.70;;
53875;SDS011;39789;53.216;5.624;2024-01-10T09:30:00;14.57;;;12.53;;
53875;SDS011;39789;53.216;5.624;2024-01-10T09:32:27;15.10;;;11.70;;
53875;SDS011;39789;53.216;5.624;2024-01-10T09:34:54;14.07;;;10.80;;
53875;SDS011;39789;53.216;5.624;2024-01-10T09:37:20;14.13;;;11.47;;
53875;SDS011;39789;53.216;5.624;2024-01-10T09:39:45;15.20;;;11.67;;
53875;SDS011;39789;53.216;5.624;2024-01-10T09:42:11;15.57;;;11.38;;
53875;SDS011;39789;53.216;5.624;2024-01-10T09:44:37;14.80;;;12.53;;
53875;SDS011;39789;53.216;5.624;2024-01-10T09:47:03;14.70;;;11.80;;
53875;SDS011;39789;53.216;5.624;2024-01-10T09:49:29;13.98;;;11.70;;
53875;SDS011;39789;53.216;5.624;2024-01-10T09:51:57;12.43;;;10.60;;
53875;SDS011;39789;53.216;5.624;2024-01-10T09:54:25;14.50;;;11.73;;
53875;SDS011;39789;53.216;5.624;2024-01-10T09:56:52;12.38;;;10.95;;
53875;SDS011;39789;53.216;5.624;2024-01-10T09:59:18;13.18;;;10.88;;
53875;SDS011;39789;53.216;5.624;2024-01-10T10:01:44;14.50;;;11.18;;
53875;SDS011;39789;53.216;5.624;2024-01-10T10:04:11;13.43;;;11.25;;
53875;SDS011;39789;53.216;5.624;2024-01-10T10:06:37;16.02;;;11.82;;
53875;SDS011;39789;53.216;5.624;2024-01-10T10:09:03;14.00;;;11.73;;
53875;SDS011;39789;53.216;5.624;2024-01-10T10:11:29;13.85;;;11.77;;
53875;SDS011;39789;53.216;5.624;2024-01-10T10:13:55;14.27;;;11.43;;
53875;SDS011;39789;53.216;5.624;2024-01-10T10:16:24;14.48;;;11.40;;
53875;SDS011;39789;53.216;5.624;2024-01-10T10:18:53;14.15;;;11.52;;
53875;SDS011;39789;53.216;5.624;2024-01-10T10:21:23;17.33;;;13.27;;
53875;SDS011;39789;53.216;5.624;2024-01-10T10:23:57;15.63;;;12.20;;
53875;SDS011;39789;53.216;5.624;2024-01-10T10:26:28;16.30;;;12.05;;
53875;SDS011;39789;53.216;5.624;2024-01-10T10:28:58;13.82;;;11.00;;
53875;SDS011;39789;53.216;5.624;2024-01-10T10:31:24;14.25;;;11.25;;
53875;SDS011;39789;53.216;5.624;2024-01-10T10:33:50;13.25;;;10.45;;
53875;SDS011;39789;53.216;5.624;2024-01-10T10:36:17;15.55;;;11.52;;
53875;SDS011;39789;53.216;5.624;2024-01-10T10:38:46;12.07;;;9.93;;
53875;SDS011;39789;53.216;5.624;2024-01-10T10:41:13;12.23;;;9.95;;
53875;SDS011;39789;53.216;5.624;2024-01-10T10:43:40;13.02;;;9.25;;
53875;SDS011;39789;53.216;5.624;2024-01-10T10:46:07;13.95;;;10.10;;
53875;SDS011;39789;53.216;5.624;2024-01-10T10:48:35;11.55;;;8.68;;
53875;SDS011;39789;53.216;5.624;2024-01-10T10:51:05;13.27;;;9.95;;
53875;SDS011;39789;53.216;5.624;2024-01-10T10:53:36;13.65;;;9.73;;
53875;SDS011;39789;53.216;5.624;2024-01-10T10:56:05;12.80;;;9.75;;
53875;SDS011;39789;53.216;5.624;2024-01-10T10:58:37;12.50;;;9.05;;
53875;SDS011;39789;53.216;5.624;2024-01-10T11:01:08;12.45;;;8.85;;
53875;SDS011;39789;53.216;5.624;2024-01-10T11:03:35;11.73;;;8.70;;
53875;SDS011;39789;53.216;5.624;2024-01-10T11:06:03;12.88;;;9.68;;
53875;SDS011;39789;53.216;5.624;2024-01-10T11:08:52;11.52;;;8.50;;
53875;SDS011;39789;53.216;5.624;2024-01-10T11:11:42;12.95;;;9.20;;
53875;SDS011;39789;53.216;5.624;2024-01-10T11:25:26;13.13;;;9.35;;
53875;SDS011;39789;53.216;5.624;2024-01-10T11:27:54;12.95;;;9.20;;
53875;SDS011;39789;53.216;5.624;2024-01-10T11:30:36;11.02;;;8.32;;
53875;SDS011;39789;53.216;5.624;2024-01-10T11:33:20;14.18;;;9.57;;
53875;SDS011;39789;53.216;5.624;2024-01-10T11:38:58;11.48;;;8.27;;
53875;SDS011;39789;53.216;5.624;2024-01-10T11:46:43;12.93;;;9.55;;
53875;SDS011;39789;53.216;5.624;2024-01-10T11:49:12;14.23;;;9.45;;
53875;SDS011;39789;53.216;5.624;2024-01-10T11:51:43;12.23;;;9.50;;
53875;SDS011;39789;53.216;5.624;2024-01-10T11:57:11;10.07;;;8.15;;
53875;SDS011;39789;53.216;5.624;2024-01-10T11:59:58;14.65;;;8.70;;
53875;SDS011;39789;53.216;5.624;2024-01-10T12:02:25;11.32;;;8.63;;
53875;SDS011;39789;53.216;5.624;2024-01-10T12:04:53;13.13;;;9.25;;
53875;SDS011;39789;53.216;5.624;2024-01-10T12:07:19;11.60;;;8.38;;
53875;SDS011;39789;53.216;5.624;2024-01-10T12:09:45;13.48;;;8.60;;
53875;SDS011;39789;53.216;5.624;2024-01-10T12:12:12;14.60;;;8.68;;
53875;SDS011;39789;53.216;5.624;2024-01-10T12:14:38;15.18;;;10.13;;
53875;SDS011;39789;53.216;5.624;2024-01-10T12:17:05;13.65;;;9.48;;
53875;SDS011;39789;53.216;5.624;2024-01-10T12:19:33;11.93;;;9.10;;
53875;SDS011;39789;53.216;5.624;2024-01-10T12:22:00;14.10;;;8.75;;
53875;SDS011;39789;53.216;5.624;2024-01-10T12:24:29;12.35;;;9.30;;
53875;SDS011;39789;53.216;5.624;2024-01-10T12:26:55;15.38;;;8.68;;
53875;SDS011;39789;53.216;5.624;2024-01-10T12:29:21;14.10;;;8.95;;
53875;SDS011;39789;53.216;5.624;2024-01-10T12:31:49;13.38;;;8.60;;
53875;SDS011;39789;53.216;5.624;2024-01-10T12:34:15;12.95;;;9.02;;
53875;SDS011;39789;53.216;5.624;2024-01-10T12:36:41;12.25;;;8.93;;
53875;SDS011;39789;53.216;5.624;2024-01-10T12:39:07;11.88;;;8.45;;
53875;SDS011;39789;53.216;5.624;2024-01-10T12:41:33;13.23;;;9.07;;
53875;SDS011;39789;53.216;5.624;2024-01-10T12:44:05;12.07;;;8.65;;
53875;SDS011;39789;53.216;5.624;2024-01-10T12:46:31;13.90;;;8.65;;
53875;SDS011;39789;53.216;5.624;2024-01-10T12:48:58;12.65;;;8.65;;
53875;SDS011;39789;53.216;5.624;2024-01-10T12:51:30;12.75;;;8.48;;
53875;SDS011;39789;53.216;5.624;2024-01-10T12:53:57;14.50;;;8.57;;
53875;SDS011;39789;53.216;5.624;2024-01-10T12:56:23;11.85;;;8.15;;
53875;SDS011;39789;53.216;5.624;2024-01-10T12:58:50;10.93;;;7.93;;
53875;SDS011;39789;53.216;5.624;2024-01-10T13:01:16;13.88;;;8.85;;
53875;SDS011;39789;53.216;5.624;2024-01-10T13:03:41;11.95;;;8.02;;
53875;SDS011;39789;53.216;5.624;2024-01-10T13:06:08;11.90;;;8.25;;
53875;SDS011;39789;53.216;5.624;2024-01-10T13:08:34;12.98;;;8.70;;
53875;SDS011;39789;53.216;5.624;2024-01-10T13:11:00;13.73;;;8.45;;
53875;SDS011;39789;53.216;5.624;2024-01-10T13:13:29;12.50;;;8.25;;
53875;SDS011;39789;53.216;5.624;2024-01-10T13:15:55;12.02;;;8.23;;
53875;SDS011;39789;53.216;5.624;2024-01-10T13:18:20;10.88;;;8.85;;
53875;SDS011;39789;53.216;5.624;2024-01-10T13:20:46;10.50;;;7.70;;
53875;SDS011;39789;53.216;5.624;2024-01-10T13:23:12;12.15;;;8.32;;
53875;SDS011;39789;53.216;5.624;2024-01-10T13:25:38;9.65;;;7.80;;
53875;SDS011;39789;53.216;5.624;2024-01-10T13:28:04;10.93;;;7.75;;
53875;SDS011;39789;53.216;5.624;2024-01-10T13:30:30;11.93;;;8.18;;
53875;SDS011;39789;53.216;5.624;2024-01-10T13:32:55;10.32;;;7.75;;
53875;SDS011;39789;53.216;5.624;2024-01-10T13:35:23;12.48;;;8.35;;
53875;SDS011;39789;53.216;5.624;2024-01-10T13:37:49;12.82;;;8.65;;
53875;SDS011;39789;53.216;5.624;2024-01-10T13:40:14;9.68;;;7.20;;
53875;SDS011;39789;53.216;5.624;2024-01-10T13:42:40;10.90;;;8.00;;
53875;SDS011;39789;53.216;5.624;2024-01-10T13:45:07;11.68;;;7.82;;
53875;SDS011;39789;53.216;5.624;2024-01-10T13:47:36;11.93;;;7.97;;
53875;SDS011;39789;53.216;5.624;2024-01-10T13:50:03;13.13;;;7.35;;
53875;SDS011;39789;53.216;5.624;2024-01-10T13:52:32;12.18;;;7.63;;
53875;SDS011;39789;53.216;5.624;2024-01-10T13:54:58;10.88;;;7.45;;
53875;SDS011;39789;53.216;5.624;2024-01-10T13:57:25;13.05;;;8.20;;
53875;SDS011;39789;53.216;5.624;2024-01-10T13:59:51;10.98;;;7.57;;
53875;SDS011;39789;53.216;5.624;2024-01-10T14:02:16;10.35;;;7.50;;
53875;SDS011;39789;53.216;5.624;2024-01-10T14:04:44;12.50;;;8.15;;
53875;SDS011;39789;53.216;5.624;2024-01-10T14:07:10;8.52;;;6.75;;
53875;SDS011;39789;53.216;5.624;2024-01-10T14:09:36;11.32;;;7.72;;
53875;SDS011;39789;53.216;5.624;2024-01-10T14:12:01;11.68;;;7.78;;
53875;SDS011;39789;53.216;5.624;2024-01-10T14:14:27;10.77;;;8.02;;
53875;SDS011;39789;53.216;5.624;2024-01-10T14:16:53;10.55;;;8.10;;
53875;SDS011;39789;53.216;5.624;2024-01-10T14:19:19;10.85;;;7.82;;
53875;SDS011;39789;53.216;5.624;2024-01-10T14:21:44;11.80;;;8.55;;
53875;SDS011;39789;53.216;5.624;2024-01-10T14:24:11;10.27;;;8.27;;
53875;SDS011;39789;53.216;5.624;2024-01-10T14:26:37;11.95;;;8.82;;
53875;SDS011;39789;53.216;5.624;2024-01-10T14:29:05;12.48;;;8.32;;
53875;SDS011;39789;53.216;5.624;2024-01-10T14:31:32;12.85;;;8.95;;
53875;SDS011;39789;53.216;5.624;2024-01-10T14:33:58;12.88;;;9.60;;
53875;SDS011;39789;53.216;5.624;2024-01-10T14:36:23;11.65;;;8.70;;
53875;SDS011;39789;53.216;5.624;2024-01-10T14:38:49;12.30;;;9.15;;
53875;SDS011;39789;53.216;5.624;2024-01-10T14:41:15;12.07;;;9.60;;
53875;SDS011;39789;53.216;5.624;2024-01-10T14:43:41;12.48;;;9.15;;
53875;SDS011;39789;53.216;5.624;2024-01-10T14:46:07;12.07;;;8.85;;